createdAt,value
2022-08-11T00:01:20.219Z,17.90
2022-08-11T00:03:53.912Z,17.90
2022-08-11T00:06:35.831Z,17.90
2022-08-11T00:09:10.823Z,18.00
2022-08-11T00:11:44.906Z,18.00
2022-08-11T00:14:37.146Z,18.10
2022-08-11T00:17:13.496Z,18.20
2022-08-11T00:20:14.208Z,18.20
2022-08-11T00:22:39.116Z,18.20
2022-08-11T00:25:17.761Z,18.20
2022-08-11T00:27:45.280Z,18.20
2022-08-11T00:30:13.702Z,18.10
2022-08-11T00:32:44.184Z,18.10
2022-08-11T00:35:56.047Z,18.00
2022-08-11T00:38:06.731Z,18.00
2022-08-11T00:40:45.455Z,17.90
2022-08-11T00:43:20.032Z,17.90
2022-08-11T00:46:15.341Z,17.90
2022-08-11T00:48:45.272Z,17.90
2022-08-11T00:52:02.278Z,17.90
2022-08-11T00:54:41.771Z,17.90
2022-08-11T00:57:37.097Z,17.90
2022-08-11T01:00:06.182Z,17.90
2022-08-11T01:03:18.387Z,17.80
2022-08-11T01:05:51.635Z,17.70
2022-08-11T01:08:18.649Z,17.70
2022-08-11T01:11:09.907Z,17.70
2022-08-11T01:13:57.752Z,17.70
2022-08-11T01:16:33.210Z,17.60
2022-08-11T01:19:18.954Z,17.50
2022-08-11T01:22:04.725Z,17.50
2022-08-11T01:25:09.678Z,17.50
2022-08-11T01:28:01.227Z,17.50
2022-08-11T01:30:57.256Z,17.50
2022-08-11T01:34:15.886Z,17.40
2022-08-11T01:36:56.886Z,17.40
2022-08-11T01:39:45.175Z,17.40
2022-08-11T01:43:01.153Z,17.40
2022-08-11T01:46:06.242Z,17.30
2022-08-11T01:48:41.707Z,17.20
2022-08-11T01:51:34.712Z,17.10
2022-08-11T01:54:05.091Z,17.10
2022-08-11T01:56:43.982Z,17.10
2022-08-11T01:59:16.703Z,17.10
2022-08-11T02:01:46.577Z,17.00
2022-08-11T02:04:34.964Z,17.00
2022-08-11T02:07:15.513Z,17.00
2022-08-11T02:10:35.193Z,17.00
2022-08-11T02:13:35.583Z,17.00
2022-08-11T02:16:38.621Z,16.90
2022-08-11T02:19:37.567Z,16.80
2022-08-11T02:22:32.332Z,16.80
2022-08-11T02:25:19.978Z,16.80
2022-08-11T02:28:29.147Z,16.70
2022-08-11T02:32:25.046Z,16.80
2022-08-11T02:34:44.429Z,16.70
2022-08-11T02:37:32.350Z,16.90
2022-08-11T02:39:59.308Z,16.80
2022-08-11T02:42:44.900Z,16.70
2022-08-11T02:45:17.939Z,16.80
2022-08-11T02:48:41.725Z,16.80
2022-08-11T02:51:26.895Z,16.80
2022-08-11T02:54:26.568Z,16.80
2022-08-11T02:56:59.307Z,16.80
2022-08-11T02:59:50.394Z,16.70
2022-08-11T03:02:27.950Z,16.70
2022-08-11T03:05:14.241Z,16.60
2022-08-11T03:07:59.546Z,16.60
2022-08-11T03:11:11.462Z,16.50
2022-08-11T03:14:07.657Z,16.50
2022-08-11T03:16:46.906Z,16.50
2022-08-11T03:19:43.176Z,16.50
2022-08-11T03:22:30.315Z,16.60
2022-08-11T03:25:20.896Z,16.60
2022-08-11T03:28:17.660Z,16.60
2022-08-11T03:30:51.807Z,16.60
2022-08-11T03:33:48.443Z,16.70
2022-08-11T03:36:27.576Z,16.70
2022-08-11T03:39:13.411Z,16.80
2022-08-11T03:42:16.683Z,16.90
2022-08-11T03:45:14.965Z,16.90
2022-08-11T03:47:54.924Z,17.00
2022-08-11T03:50:41.333Z,17.00
2022-08-11T03:53:14.442Z,17.10
2022-08-11T03:56:02.931Z,17.10
2022-08-11T03:59:02.331Z,17.10
2022-08-11T04:01:50.641Z,17.10
2022-08-11T04:04:20.466Z,17.10
2022-08-11T04:07:39.822Z,17.10
2022-08-11T04:10:25.573Z,17.20
2022-08-11T04:12:58.312Z,17.30
2022-08-11T04:15:43.741Z,17.20
2022-08-11T04:18:33.663Z,17.20
2022-08-11T04:21:39.385Z,17.20
2022-08-11T04:24:39.714Z,17.10
2022-08-11T04:27:25.409Z,17.20
2022-08-11T04:30:05.476Z,17.20
2022-08-11T04:32:35.939Z,17.30
2022-08-11T04:35:24.218Z,17.30
2022-08-11T04:38:09.220Z,17.40
2022-08-11T04:41:14.494Z,17.50
2022-08-11T04:44:18.300Z,17.50
2022-08-11T04:48:01.393Z,17.60
2022-08-11T04:51:16.866Z,17.70
2022-08-11T04:54:15.230Z,17.70
2022-08-11T04:57:03.239Z,17.80
2022-08-11T05:00:29.184Z,17.90
2022-08-11T05:03:14.084Z,17.90
2022-08-11T05:06:13.288Z,18.00
2022-08-11T05:09:10.524Z,18.10
2022-08-11T05:12:01.831Z,18.40
2022-08-11T05:15:11.667Z,18.60
2022-08-11T05:18:02.864Z,18.70
2022-08-11T05:20:58.736Z,18.80
2022-08-11T05:23:46.306Z,18.80
2022-08-11T05:26:46.697Z,18.80
2022-08-11T05:29:54.110Z,18.80
2022-08-11T05:32:41.958Z,18.90
2022-08-11T05:35:09.748Z,19.00
2022-08-11T05:38:05.874Z,19.20
2022-08-11T05:40:53.203Z,19.40
2022-08-11T05:44:20.994Z,19.50
2022-08-11T05:47:01.206Z,19.60
2022-08-11T05:49:50.130Z,19.50
2022-08-11T05:52:44.238Z,19.70
2022-08-11T05:55:34.367Z,19.80
2022-08-11T05:58:04.586Z,19.80
2022-08-11T06:00:32.359Z,20.00
2022-08-11T06:03:04.125Z,20.20
2022-08-11T06:05:38.177Z,20.40
2022-08-11T06:08:12.655Z,20.60
2022-08-11T06:10:44.917Z,20.80
2022-08-11T06:13:17.565Z,20.70
2022-08-11T06:15:47.651Z,21.30
2022-08-11T06:18:15.383Z,21.50
2022-08-11T06:20:51.046Z,21.40
2022-08-11T06:23:23.193Z,21.30
2022-08-11T06:25:56.292Z,21.60
2022-08-11T06:28:35.023Z,21.70
2022-08-11T06:31:12.745Z,21.40
2022-08-11T06:33:48.423Z,21.80
2022-08-11T06:36:34.940Z,22.20
2022-08-11T06:39:27.692Z,21.90
2022-08-11T06:42:05.694Z,22.10
2022-08-11T06:44:58.416Z,22.10
2022-08-11T06:47:26.383Z,21.90
2022-08-11T06:50:18.071Z,21.90
2022-08-11T06:52:47.765Z,21.80
2022-08-11T06:55:55.665Z,22.00
2022-08-11T06:58:49.654Z,22.00
2022-08-11T07:01:47.803Z,22.70
2022-08-11T07:04:40.146Z,22.90
2022-08-11T07:08:33.102Z,22.70
2022-08-11T07:11:16.809Z,22.90
2022-08-11T07:14:02.798Z,22.90
2022-08-11T07:16:34.862Z,22.80
2022-08-11T07:19:27.773Z,23.00
2022-08-11T07:22:15.789Z,23.30
2022-08-11T07:25:19.716Z,23.30
2022-08-11T07:28:29.963Z,23.40
2022-08-11T07:31:03.507Z,23.30
2022-08-11T07:34:06.872Z,23.50
2022-08-11T07:36:45.798Z,23.60
2022-08-11T07:39:39.412Z,23.40
2022-08-11T07:42:09.813Z,23.20
2022-08-11T07:45:00.637Z,23.30
2022-08-11T07:47:47.171Z,23.80
2022-08-11T07:50:33.915Z,23.50
2022-08-11T07:53:02.819Z,23.40
2022-08-11T07:55:51.335Z,23.50
2022-08-11T07:58:45.734Z,24.00
2022-08-11T08:01:42.363Z,24.40
2022-08-11T08:04:32.004Z,24.60
2022-08-11T08:07:19.572Z,24.60
2022-08-11T08:10:07.276Z,24.20
2022-08-11T08:12:53.348Z,24.10
2022-08-11T08:15:40.442Z,24.40
2022-08-11T08:18:25.935Z,24.50
2022-08-11T08:20:56.840Z,24.50
2022-08-11T08:23:33.752Z,24.60
2022-08-11T08:26:04.906Z,24.80
2022-08-11T08:28:33.996Z,24.90
2022-08-11T08:31:01.258Z,24.90
2022-08-11T08:33:31.299Z,25.10
2022-08-11T08:36:14.836Z,24.80
2022-08-11T08:38:47.305Z,24.90
2022-08-11T08:41:18.785Z,25.20
2022-08-11T08:43:51.060Z,25.00
2022-08-11T08:46:22.350Z,25.20
2022-08-11T08:48:53.153Z,25.50
2022-08-11T08:51:54.858Z,25.40
2022-08-11T08:54:34.258Z,25.00
2022-08-11T08:57:05.493Z,25.00
2022-08-11T08:59:47.549Z,24.50
2022-08-11T09:02:22.050Z,24.50
2022-08-11T09:05:04.441Z,24.70
2022-08-11T09:07:38.705Z,25.20
2022-08-11T09:10:08.901Z,25.50
2022-08-11T09:12:39.194Z,25.30
2022-08-11T09:15:10.394Z,25.10
2022-08-11T09:17:47.755Z,24.90
2022-08-11T09:20:22.568Z,24.60
2022-08-11T09:24:07.037Z,24.70
2022-08-11T09:26:17.857Z,24.80
2022-08-11T09:28:46.481Z,25.20
2022-08-11T09:31:14.816Z,25.30
2022-08-11T09:33:43.909Z,25.30
2022-08-11T09:36:32.068Z,25.40
2022-08-11T09:39:21.759Z,25.20
2022-08-11T09:42:01.814Z,25.20
2022-08-11T09:44:49.496Z,25.20
2022-08-11T09:47:27.328Z,25.50
2022-08-11T09:50:01.180Z,25.50
2022-08-11T09:52:32.394Z,25.50
2022-08-11T09:55:00.036Z,25.70
2022-08-11T09:57:45.963Z,25.70
2022-08-11T10:00:15.251Z,25.70
2022-08-11T10:02:46.371Z,25.80
2022-08-11T10:05:35.932Z,25.90
2022-08-11T10:08:04.350Z,25.90
2022-08-11T10:10:36.379Z,26.20
2022-08-11T10:13:05.630Z,26.30
2022-08-11T10:15:59.887Z,26.20
2022-08-11T10:18:49.701Z,25.90
2022-08-11T10:21:28.392Z,25.90
2022-08-11T10:24:17.474Z,25.90
2022-08-11T10:26:55.069Z,25.90
2022-08-11T10:29:54.758Z,26.00
2022-08-11T10:32:58.807Z,25.90
2022-08-11T10:35:28.374Z,25.90
2022-08-11T10:38:06.034Z,26.10
2022-08-11T10:40:36.029Z,26.10
2022-08-11T10:43:05.606Z,26.00
2022-08-11T10:45:58.901Z,26.10
2022-08-11T10:48:28.787Z,26.00
2022-08-11T10:51:14.681Z,26.20
2022-08-11T10:54:12.587Z,26.30
2022-08-11T10:56:59.486Z,26.30
2022-08-11T10:59:30.421Z,26.40
2022-08-11T11:01:59.170Z,26.30
2022-08-11T11:04:50.919Z,26.10
2022-08-11T11:07:24.215Z,26.10
2022-08-11T11:09:57.445Z,26.30
2022-08-11T11:12:51.966Z,26.30
2022-08-11T11:15:40.520Z,26.40
2022-08-11T11:18:11.435Z,26.50
2022-08-11T11:20:53.743Z,26.80
2022-08-11T11:23:23.192Z,26.60
2022-08-11T11:26:27.110Z,26.70
2022-08-11T11:29:31.816Z,26.80
2022-08-11T11:32:04.755Z,27.00
2022-08-11T11:34:59.598Z,27.30
2022-08-11T11:37:29.674Z,27.10
2022-08-11T11:39:57.882Z,27.00
2022-08-11T11:42:25.604Z,26.80
2022-08-11T11:44:55.825Z,26.90
2022-08-11T11:47:24.018Z,27.10
2022-08-11T11:49:51.428Z,27.20
2022-08-11T11:52:21.968Z,27.40
2022-08-11T11:54:52.157Z,27.30
2022-08-11T11:57:39.939Z,27.00
2022-08-11T12:00:33.468Z,27.00
2022-08-11T12:03:05.452Z,27.30
2022-08-11T12:05:34.786Z,27.20
2022-08-11T12:08:15.447Z,27.30
2022-08-11T12:11:15.672Z,27.50
2022-08-11T12:13:46.057Z,28.20
2022-08-11T12:16:34.221Z,28.60
2022-08-11T12:19:05.522Z,28.70
2022-08-11T12:21:34.519Z,28.20
2022-08-11T12:24:21.865Z,28.10
2022-08-11T12:27:14.860Z,28.10
2022-08-11T12:29:41.166Z,28.20
2022-08-11T12:32:11.589Z,27.80
2022-08-11T12:34:38.863Z,27.60
2022-08-11T12:37:13.203Z,27.70
2022-08-11T12:40:42.930Z,28.10
2022-08-11T12:43:23.555Z,28.30
2022-08-11T12:46:18.735Z,28.60
2022-08-11T12:49:06.352Z,28.60
2022-08-11T12:52:00.773Z,28.00
2022-08-11T12:54:52.200Z,27.90
2022-08-11T12:58:01.212Z,27.70
2022-08-11T13:00:48.702Z,27.50
2022-08-11T13:03:37.027Z,27.30
2022-08-11T13:06:07.206Z,27.50
2022-08-11T13:08:36.822Z,27.90
2022-08-11T13:11:23.226Z,27.90
2022-08-11T13:13:57.093Z,27.90
2022-08-11T13:16:56.744Z,27.90
2022-08-11T13:19:24.372Z,27.80
2022-08-11T13:21:53.407Z,27.70
2022-08-11T13:24:22.767Z,27.80
2022-08-11T13:26:50.956Z,27.70
2022-08-11T13:29:23.196Z,27.80
2022-08-11T13:31:52.508Z,27.80
2022-08-11T13:34:21.582Z,27.70
2022-08-11T13:36:52.351Z,27.80
2022-08-11T13:39:25.207Z,27.70
2022-08-11T13:41:56.931Z,27.70
2022-08-11T13:44:30.064Z,27.90
2022-08-11T13:47:06.724Z,28.00
2022-08-11T13:49:39.823Z,28.10
2022-08-11T13:52:17.737Z,28.30
2022-08-11T13:54:48.347Z,28.20
2022-08-11T13:58:08.272Z,28.30
2022-08-11T14:00:20.881Z,28.40
2022-08-11T14:02:56.345Z,28.30
2022-08-11T14:05:28.343Z,28.00
2022-08-11T14:08:00.337Z,27.90
2022-08-11T14:10:30.487Z,28.10
2022-08-11T14:13:21.679Z,28.10
2022-08-11T14:15:52.138Z,28.20
2022-08-11T14:18:30.251Z,28.10
2022-08-11T14:21:18.331Z,28.50
2022-08-11T14:23:48.341Z,28.40
2022-08-11T14:26:27.853Z,28.20
2022-08-11T14:28:55.235Z,27.80
2022-08-11T14:31:25.619Z,27.60
2022-08-11T14:33:59.642Z,27.50
2022-08-11T14:36:40.390Z,27.60
2022-08-11T14:39:18.543Z,27.40
2022-08-11T14:42:12.544Z,27.20
2022-08-11T14:45:07.136Z,27.20
2022-08-11T14:47:40.261Z,27.60
2022-08-11T14:50:12.816Z,28.10
2022-08-11T14:52:50.581Z,28.80
2022-08-11T14:55:38.500Z,29.80
2022-08-11T14:58:06.222Z,30.60
2022-08-11T15:00:34.595Z,32.40
2022-08-11T15:03:13.934Z,34.20
2022-08-11T15:05:56.474Z,33.80
2022-08-11T15:08:56.780Z,33.90
2022-08-11T15:11:48.990Z,35.80
2022-08-11T15:14:39.346Z,36.90
2022-08-11T15:17:09.776Z,37.10
2022-08-11T15:20:00.509Z,37.00
2022-08-11T15:22:46.189Z,35.60
2022-08-11T15:25:13.566Z,34.30
2022-08-11T15:28:01.135Z,32.70
2022-08-11T15:30:47.649Z,32.50
2022-08-11T15:33:36.913Z,30.50
2022-08-11T15:36:25.804Z,29.50
2022-08-11T15:39:02.270Z,28.70
2022-08-11T15:42:03.952Z,28.10
2022-08-11T15:45:08.056Z,28.20
2022-08-11T15:47:44.743Z,27.90
2022-08-11T15:50:19.940Z,27.70
2022-08-11T15:52:53.795Z,27.40
2022-08-11T15:55:23.813Z,27.50
2022-08-11T15:58:12.342Z,27.40
2022-08-11T16:01:04.396Z,27.50
2022-08-11T16:04:14.378Z,27.40
2022-08-11T16:07:11.710Z,27.50
2022-08-11T16:09:52.744Z,27.40
2022-08-11T16:12:26.688Z,27.20
2022-08-11T16:15:20.275Z,27.20
2022-08-11T16:17:59.551Z,27.10
2022-08-11T16:20:29.292Z,27.20
2022-08-11T16:23:01.933Z,27.10
2022-08-11T16:27:05.818Z,27.20
2022-08-11T16:28:22.381Z,27.20
2022-08-11T16:30:51.188Z,27.20
2022-08-11T16:33:22.756Z,27.20
2022-08-11T16:36:30.090Z,27.20
2022-08-11T16:38:59.718Z,27.10
2022-08-11T16:41:53.172Z,27.20
2022-08-11T16:44:40.283Z,27.00
2022-08-11T16:47:16.515Z,26.90
2022-08-11T16:49:52.643Z,26.80
2022-08-11T16:52:22.310Z,26.80
2022-08-11T16:54:49.688Z,26.80
2022-08-11T16:57:42.278Z,26.80
2022-08-11T17:00:12.620Z,26.70
2022-08-11T17:03:05.380Z,26.50
2022-08-11T17:05:55.119Z,26.50
2022-08-11T17:08:57.016Z,26.40
2022-08-11T17:11:47.761Z,26.40
2022-08-11T17:14:35.840Z,26.20
2022-08-11T17:17:06.405Z,26.20
2022-08-11T17:20:40.138Z,26.10
2022-08-11T17:22:44.681Z,26.00
2022-08-11T17:25:13.159Z,25.90
2022-08-11T17:27:42.230Z,25.90
2022-08-11T17:30:11.944Z,25.70
2022-08-11T17:33:06.138Z,25.60
2022-08-11T17:35:39.086Z,25.40
2022-08-11T17:38:18.736Z,25.20
2022-08-11T17:41:18.561Z,25.00
2022-08-11T17:44:10.309Z,24.90
2022-08-11T17:46:59.190Z,24.70
2022-08-11T17:49:37.874Z,24.50
2022-08-11T17:52:25.617Z,24.20
2022-08-11T17:55:13.558Z,24.00
2022-08-11T17:58:00.908Z,23.80
2022-08-11T18:00:28.268Z,23.60
2022-08-11T18:03:14.818Z,23.30
2022-08-11T18:05:46.034Z,23.10
2022-08-11T18:08:33.142Z,23.00
2022-08-11T18:12:06.454Z,22.80
2022-08-11T18:14:29.245Z,22.70
2022-08-11T18:17:14.967Z,22.60
2022-08-11T18:20:00.541Z,22.40
2022-08-11T18:22:50.807Z,22.30
2022-08-11T18:25:45.251Z,22.20
2022-08-11T18:28:33.698Z,22.10
2022-08-11T18:31:21.894Z,22.00
2022-08-11T18:34:12.928Z,21.90
2022-08-11T18:37:19.423Z,21.90
2022-08-11T18:40:15.030Z,21.80
2022-08-11T18:43:03.002Z,21.70
2022-08-11T18:45:52.778Z,21.70
2022-08-11T18:48:55.897Z,21.70
2022-08-11T18:51:44.139Z,21.60
2022-08-11T18:54:31.811Z,21.50
2022-08-11T18:57:21.829Z,21.50
2022-08-11T19:00:10.526Z,21.40
2022-08-11T19:02:57.714Z,21.40
2022-08-11T19:06:31.979Z,21.40
2022-08-11T19:08:54.429Z,21.30
2022-08-11T19:11:42.619Z,21.20
2022-08-11T19:14:31.366Z,21.10
2022-08-11T19:17:44.587Z,20.90
2022-08-11T19:20:29.279Z,20.80
2022-08-11T19:23:16.580Z,20.70
2022-08-11T19:26:06.261Z,20.70
2022-08-11T19:28:55.723Z,20.60
2022-08-11T19:31:44.741Z,20.50
2022-08-11T19:34:33.822Z,20.50
2022-08-11T19:37:24.378Z,20.40
2022-08-11T19:40:20.861Z,20.30
2022-08-11T19:43:14.867Z,20.30
2022-08-11T19:46:16.181Z,20.20
2022-08-11T19:49:04.908Z,20.10
2022-08-11T19:51:53.625Z,20.00
2022-08-11T19:54:46.808Z,19.90
2022-08-11T19:57:38.696Z,19.80
2022-08-11T20:00:32.826Z,19.80
2022-08-11T20:03:19.443Z,19.70
2022-08-11T20:06:06.625Z,19.70
2022-08-11T20:08:58.375Z,19.60
2022-08-11T20:11:49.110Z,19.50
2022-08-11T20:14:36.771Z,19.50
2022-08-11T20:17:23.931Z,19.50
2022-08-11T20:20:10.392Z,19.40
2022-08-11T20:22:57.017Z,19.30
2022-08-11T20:25:44.441Z,19.30
2022-08-11T20:28:33.471Z,19.20
2022-08-11T20:31:20.193Z,19.10
2022-08-11T20:34:06.211Z,19.00
2022-08-11T20:36:55.993Z,19.00
2022-08-11T20:39:43.727Z,18.90
2022-08-11T20:42:31.276Z,18.90
2022-08-11T20:45:23.782Z,19.00
2022-08-11T20:48:14.666Z,18.90
2022-08-11T20:51:06.240Z,18.80
2022-08-11T20:54:05.725Z,18.70
2022-08-11T20:56:54.294Z,18.50
2022-08-11T20:59:50.617Z,18.40
2022-08-11T21:02:39.923Z,18.40
2022-08-11T21:06:08.198Z,18.40
2022-08-11T21:08:32.802Z,18.30
2022-08-11T21:11:27.625Z,18.30
2022-08-11T21:14:14.108Z,18.20
2022-08-11T21:17:27.087Z,18.10
2022-08-11T21:20:17.016Z,18.10
2022-08-11T21:23:36.018Z,18.00
2022-08-11T21:26:27.265Z,17.90
2022-08-11T21:29:15.888Z,17.90
2022-08-11T21:32:01.819Z,17.80
2022-08-11T21:34:49.516Z,17.80
2022-08-11T21:37:36.778Z,17.80
2022-08-11T21:40:23.812Z,17.70
2022-08-11T21:43:11.988Z,17.60
2022-08-11T21:45:59.084Z,17.60
2022-08-11T21:48:46.569Z,17.60
2022-08-11T21:51:32.210Z,17.50
2022-08-11T21:54:19.256Z,17.40
2022-08-11T21:57:06.457Z,17.40
2022-08-11T22:00:08.032Z,17.40
2022-08-11T22:02:55.187Z,17.30
2022-08-11T22:05:41.730Z,17.30
2022-08-11T22:08:28.004Z,17.20
2022-08-11T22:11:14.459Z,17.20
2022-08-11T22:14:05.377Z,17.20
2022-08-11T22:16:53.815Z,17.10
2022-08-11T22:19:41.517Z,17.10
2022-08-11T22:22:29.286Z,17.00
2022-08-11T22:25:18.669Z,17.10
2022-08-11T22:28:04.096Z,17.00
2022-08-11T22:30:49.612Z,17.00
2022-08-11T22:33:36.467Z,17.00
2022-08-11T22:36:29.650Z,16.90
2022-08-11T22:39:18.924Z,16.80
2022-08-11T22:42:05.129Z,16.80
2022-08-11T22:44:51.255Z,16.70
2022-08-11T22:47:40.660Z,16.70
2022-08-11T22:50:29.829Z,16.70
2022-08-11T22:53:16.305Z,16.70
2022-08-11T22:56:01.868Z,16.60
2022-08-11T22:58:48.970Z,16.50
2022-08-11T23:01:35.946Z,16.50
2022-08-11T23:04:22.234Z,16.40
2022-08-11T23:07:09.271Z,16.40
2022-08-11T23:09:56.291Z,16.40
2022-08-11T23:12:42.048Z,16.40
2022-08-11T23:15:33.301Z,16.40
2022-08-11T23:18:20.566Z,16.30
2022-08-11T23:21:06.259Z,16.30
2022-08-11T23:23:51.938Z,16.20
2022-08-11T23:26:39.005Z,16.10
2022-08-11T23:29:26.543Z,16.10
2022-08-11T23:32:12.791Z,16.00
2022-08-11T23:35:03.817Z,16.00
2022-08-11T23:37:51.104Z,16.00
2022-08-11T23:40:36.778Z,16.00
2022-08-11T23:43:22.323Z,16.00
2022-08-11T23:46:08.003Z,16.10
2022-08-11T23:48:56.529Z,16.20
2022-08-11T23:51:43.806Z,16.20
2022-08-11T23:54:36.929Z,16.20
2022-08-11T23:57:23.531Z,16.20
